Time;durP1;ratioP1;P1;durP2;ratioP2;P2;SDS_P1;SDS_P2;PMS_P1;PMS_P2;Temp;Humidity;BMP_temperature;BMP_pressure;BME280_temperature;BME280_humidity;BME280_pressure;Samples;Min_cycle;Max_cycle;Signal;HPM_P1;HPM_P2
2022/04/01 04:41:57;;;;;;;7.57;4.93;;;;;;;-1.31;78.45;98636.53;5191977;27;20337;-71
2022/04/01 04:44:29;;;;;;;7.43;4.07;;;;;;;-1.27;78.56;98631.84;5195070;27;20039;-71
2022/04/01 04:46:56;;;;;;;8.48;4.25;;;;;;;-1.21;79.52;98633.94;5195254;27;20033;-71
2022/04/01 04:49:22;;;;;;;9.05;5.65;;;;;;;-1.12;78.89;98630.53;5194070;27;20031;-70
2022/04/01 04:51:48;;;;;;;9.18;5.70;;;;;;;-1.04;79.30;98624.59;5195074;27;20031;-70
2022/04/01 04:54:16;;;;;;;7.88;5.65;;;;;;;-0.98;79.20;98624.09;5183954;27;20031;-71
2022/04/01 04:56:41;;;;;;;7.93;4.80;;;;;;;-0.91;79.78;98624.38;5174174;27;20158;-71
2022/04/01 04:59:08;;;;;;;7.47;4.72;;;;;;;-0.86;80.02;98619.56;5173841;27;20093;-70
2022/04/01 05:01:42;;;;;;;8.02;6.05;;;;;;;-0.80;79.63;98619.00;5174063;27;20570;-71
2022/04/01 05:04:13;;;;;;;9.27;6.40;;;;;;;-0.74;79.48;98631.56;5173747;27;20023;-71
2022/04/01 05:06:49;;;;;;;8.77;5.93;;;;;;;-0.71;79.89;98628.66;5174017;27;20027;-71
2022/04/01 05:09:24;;;;;;;15.27;6.00;;;;;;;-0.68;78.98;98622.34;5174017;27;20754;-71
2022/04/01 05:12:07;;;;;;;10.82;6.93;;;;;;;-0.64;79.80;98622.88;5173739;27;20026;-70
2022/04/01 05:14:35;;;;;;;9.10;6.05;;;;;;;-0.62;79.63;98615.72;5173920;27;20035;-70
2022/04/01 05:17:04;;;;;;;7.30;5.53;;;;;;;-0.61;79.22;98623.44;5173516;27;20076;-70
2022/04/01 05:19:31;;;;;;;9.25;6.30;;;;;;;-0.57;79.69;98624.00;5173461;27;20027;-71
2022/04/01 05:22:09;;;;;;;10.73;6.15;;;;;;;-0.57;78.99;98624.81;5173438;27;20023;-71
2022/04/01 05:24:52;;;;;;;10.65;6.13;;;;;;;-0.55;79.14;98627.28;5173867;27;20031;-70
2022/04/01 05:27:23;;;;;;;13.23;6.45;;;;;;;-0.54;79.44;98623.72;5173334;27;20031;-71
2022/04/01 05:30:01;;;;;;;7.15;5.07;;;;;;;-0.50;79.03;98630.31;5173485;27;20027;-71
2022/04/01 05:32:31;;;;;;;9.70;6.25;;;;;;;-0.49;78.94;98628.50;5173288;27;20077;-71
2022/04/01 05:35:00;;;;;;;12.05;6.22;;;;;;;-0.47;79.32;98627.41;5173213;27;20501;-71
2022/04/01 05:37:28;;;;;;;4.47;3.05;;;;;;;-0.44;79.48;98624.50;5172890;27;20116;-71
2022/04/01 05:39:55;;;;;;;16.92;6.15;;;;;;;-0.43;79.05;98628.78;5172750;27;20414;-71
2022/04/01 05:42:22;;;;;;;11.30;7.00;;;;;;;-0.39;79.06;98624.13;5173139;27;20050;-71
2022/04/01 05:44:49;;;;;;;14.27;7.13;;;;;;;-0.42;79.16;98621.78;5173405;27;20034;-70
2022/04/01 05:47:16;;;;;;;13.13;6.50;;;;;;;-0.42;78.63;98630.44;5173075;27;20031;-71
2022/04/01 05:49:43;;;;;;;9.77;6.07;;;;;;;-0.41;79.35;98629.50;5173149;27;20031;-71
2022/04/01 05:52:10;;;;;;;7.30;5.47;;;;;;;-0.39;79.34;98632.78;5165073;27;20039;-71
2022/04/01 05:54:37;;;;;;;14.15;8.55;;;;;;;0.09;81.52;98643.34;5114861;27;106025;-71
2022/04/01 05:57:03;;;;;;;11.57;7.28;;;;;;;0.35;80.36;98640.91;5071523;27;106213;-72
2022/04/01 05:59:29;;;;;;;14.85;8.65;;;;;;;0.31;79.35;98639.56;5070880;27;106577;-72
2022/04/01 06:02:15;;;;;;;15.98;8.65;;;;;;;0.24;78.74;98639.28;5071211;27;106054;-71
2022/04/01 06:04:58;;;;;;;12.48;8.75;;;;;;;0.19;78.71;98649.38;5071715;27;106157;-71
2022/04/01 06:07:59;;;;;;;12.85;7.97;;;;;;;0.15;78.51;98648.84;5071590;27;106195;-71
2022/04/01 06:10:43;;;;;;;13.65;8.75;;;;;;;0.12;78.53;98651.75;5027927;28;105981;-70
2022/04/01 06:13:56;;;;;;;16.15;9.77;;;;;;;0.09;78.11;98646.78;5067503;27;106430;-70
2022/04/01 06:16:38;;;;;;;13.20;10.32;;;;;;;0.12;78.36;98653.53;5052199;27;106008;-70
2022/04/01 06:19:23;;;;;;;10.75;8.95;;;;;;;0.14;78.14;98649.00;5070410;27;105951;-70
2022/04/01 06:21:56;;;;;;;11.75;9.25;;;;;;;0.13;78.03;98653.38;5070786;27;105814;-70
2022/04/01 06:24:27;;;;;;;14.68;10.13;;;;;;;0.13;78.02;98658.63;5070775;27;105993;-69
2022/04/01 06:26:58;;;;;;;16.50;10.15;;;;;;;0.16;77.80;98654.91;5071031;27;105941;-69
2022/04/01 06:29:36;;;;;;;19.13;10.55;;;;;;;0.19;77.81;98661.66;5069778;27;106110;-69
2022/04/01 06:32:10;;;;;;;13.35;9.60;;;;;;;0.22;77.60;98661.34;5068988;27;105997;-70
2022/04/01 06:35:07;;;;;;;15.05;10.55;;;;;;;0.23;77.98;98661.22;5070523;27;105935;-70
2022/04/01 06:37:38;;;;;;;15.50;10.07;;;;;;;0.22;77.47;98663.97;5070562;27;105871;-69
2022/04/01 06:40:12;;;;;;;16.17;10.70;;;;;;;0.21;77.59;98671.00;5069209;27;105795;-69
2022/04/01 06:42:39;;;;;;;16.70;10.73;;;;;;;0.23;77.38;98668.25;5069087;27;106435;-71
2022/04/01 06:45:06;;;;;;;12.05;9.75;;;;;;;0.22;77.42;98662.19;5069426;27;106043;-72
2022/04/01 06:47:32;;;;;;;14.85;10.80;;;;;;;0.21;77.11;98665.78;5070810;27;105996;-72
2022/04/01 06:49:57;;;;;;;13.45;9.23;;;;;;;0.20;77.28;98661.50;5069665;27;106226;-71
2022/04/01 06:52:25;;;;;;;16.10;10.15;;;;;;;0.21;76.92;98663.16;5070318;27;106485;-71
2022/04/01 06:54:50;;;;;;;19.40;9.68;;;;;;;0.26;77.28;98663.56;5069722;27;106491;-71
2022/04/01 06:57:15;;;;;;;13.07;8.93;;;;;;;0.35;77.48;98667.13;5071367;27;106007;-71
2022/04/01 06:59:41;;;;;;;18.48;10.07;;;;;;;0.39;76.92;98657.19;5069344;27;106201;-71
2022/04/01 07:02:06;;;;;;;11.48;8.60;;;;;;;0.44;76.84;98660.22;5066133;27;113111;-71
2022/04/01 07:04:31;;;;;;;11.82;8.68;;;;;;;0.47;76.66;98646.81;5067425;27;106112;-71
2022/04/01 07:06:59;;;;;;;13.75;9.02;;;;;;;0.54;76.84;98655.75;5069671;27;105979;-73
2022/04/01 07:09:25;;;;;;;12.50;9.02;;;;;;;0.57;76.49;98657.25;5068852;27;106258;-72
2022/04/01 07:11:50;;;;;;;10.48;8.48;;;;;;;0.57;76.22;98659.88;5068228;27;105961;-73
2022/04/01 07:14:16;;;;;;;11.02;8.07;;;;;;;0.55;76.00;98656.56;5068193;27;106023;-73
2022/04/01 07:16:41;;;;;;;9.23;7.65;;;;;;;0.53;76.67;98669.00;5069231;27;106771;-73
2022/04/01 07:19:07;;;;;;;11.48;8.07;;;;;;;0.57;76.49;98671.19;5068163;27;114751;-73
2022/04/01 07:21:33;;;;;;;14.00;8.07;;;;;;;0.59;76.25;98673.66;5068692;27;107098;-74
2022/04/01 07:24:00;;;;;;;18.88;7.78;;;;;;;0.57;76.17;98671.19;5068158;27;106024;-73
2022/04/01 07:26:25;;;;;;;13.63;9.52;;;;;;;0.55;75.84;98667.88;5067624;27;106581;-72
2022/04/01 07:28:52;;;;;;;10.65;7.93;;;;;;;0.60;76.15;98676.16;5069054;27;106182;-72
2022/04/01 07:34:04;;;;;;;14.20;8.52;;;;;;;0.68;75.92;98667.56;5068197;27;106115;-71
2022/04/01 07:36:30;;;;;;;14.27;9.95;;;;;;;0.75;75.68;98673.03;5068691;27;106051;-71
2022/04/01 07:38:55;;;;;;;11.32;8.48;;;;;;;0.85;75.99;98671.22;5068291;27;105866;-71
2022/04/01 07:41:20;;;;;;;11.45;9.23;;;;;;;0.96;75.38;98676.25;5067134;27;106054;-70
2022/04/01 07:43:46;;;;;;;14.10;8.82;;;;;;;1.00;75.31;98680.25;5067802;27;106193;-71
2022/04/01 07:46:11;;;;;;;9.73;7.22;;;;;;;1.06;75.06;98685.88;5067854;27;105899;-70
2022/04/01 07:48:37;;;;;;;14.15;8.75;;;;;;;1.07;74.62;98682.28;5067355;27;106229;-72
2022/04/01 07:51:03;;;;;;;15.90;8.90;;;;;;;1.16;74.95;98684.00;5067008;27;106448;-72
2022/04/01 07:53:28;;;;;;;17.08;10.27;;;;;;;1.28;75.20;98688.09;5067017;27;105915;-71
2022/04/01 07:55:54;;;;;;;17.92;9.93;;;;;;;1.49;75.41;98681.72;5067588;27;106057;-72
2022/04/01 07:58:19;;;;;;;28.73;8.57;;;;;;;1.60;74.60;98694.66;5067847;27;106225;-73
2022/04/01 08:00:45;;;;;;;15.88;9.15;;;;;;;1.65;74.21;98679.28;5067108;27;106766;-71
2022/04/01 08:03:11;;;;;;;26.25;10.35;;;;;;;1.75;74.21;98692.34;5067377;27;106063;-70
2022/04/01 08:05:36;;;;;;;19.05;10.48;;;;;;;1.82;74.02;98682.88;5067649;27;106074;-71
2022/04/01 08:08:02;;;;;;;13.60;9.02;;;;;;;1.94;74.17;98693.97;5067147;27;106553;-72
2022/04/01 08:10:27;;;;;;;13.85;9.95;;;;;;;2.02;73.60;98695.81;5067512;27;106064;-71
2022/04/01 08:12:52;;;;;;;12.85;8.32;;;;;;;2.06;72.83;98696.34;5067188;27;105905;-72
2022/04/01 08:15:18;;;;;;;11.60;9.15;;;;;;;2.04;72.59;98701.78;5067878;27;106538;-71
2022/04/01 08:17:44;;;;;;;15.98;9.20;;;;;;;2.03;72.11;98705.38;5067572;27;105983;-72
2022/04/01 08:20:12;;;;;;;12.98;8.13;;;;;;;2.07;72.17;98711.16;5067054;27;106107;-71
2022/04/01 08:22:38;;;;;;;16.67;8.77;;;;;;;2.09;72.58;98709.19;5067267;27;106163;-70
2022/04/01 08:25:04;;;;;;;19.73;9.30;;;;;;;2.13;72.89;98702.66;5067400;27;106059;-71
2022/04/01 08:27:30;;;;;;;13.43;8.98;;;;;;;2.22;72.73;98703.53;5067311;27;106495;-72
2022/04/01 08:29:59;;;;;;;21.42;10.77;;;;;;;2.23;72.39;98711.28;5066879;27;106014;-71
2022/04/01 08:32:25;;;;;;;10.20;6.57;;;;;;;2.26;72.22;98705.69;5065593;27;106373;-71
2022/04/01 08:34:51;;;;;;;17.60;8.05;;;;;;;2.24;71.95;98712.91;5067500;27;105968;-72
2022/04/01 08:37:16;;;;;;;20.80;9.55;;;;;;;2.22;71.36;98709.63;5066909;27;106147;-71
2022/04/01 08:39:43;;;;;;;13.95;9.52;;;;;;;2.12;71.11;98714.97;5066696;27;106893;-71
2022/04/01 08:42:09;;;;;;;17.05;9.73;;;;;;;2.12;71.72;98712.34;5066846;27;106166;-72
2022/04/01 08:44:40;;;;;;;16.27;9.15;;;;;;;2.14;71.79;98725.31;5067876;27;105920;-73
2022/04/01 08:47:07;;;;;;;9.98;6.63;;;;;;;2.15;72.04;98725.16;5067713;27;105968;-74
2022/04/01 08:49:32;;;;;;;17.55;9.20;;;;;;;2.10;71.46;98723.97;5066712;27;106018;-72
2022/04/01 08:51:58;;;;;;;12.55;8.15;;;;;;;2.06;71.64;98727.88;5066528;27;106468;-72
2022/04/01 08:54:23;;;;;;;17.60;9.57;;;;;;;1.97;70.91;98719.94;5067424;27;106038;-72
2022/04/01 08:56:49;;;;;;;19.48;9.63;;;;;;;1.89;70.93;98730.38;5066622;27;106357;-72
2022/04/01 08:59:14;;;;;;;13.35;8.45;;;;;;;1.90;71.56;98729.41;5066549;27;106506;-70
2022/04/01 09:01:42;;;;;;;11.05;8.45;;;;;;;1.94;71.86;98730.75;5065154;27;106111;-70
2022/04/01 09:04:17;;;;;;;17.00;8.27;;;;;;;1.99;71.91;98731.09;5065481;27;105848;-71
2022/04/01 09:06:42;;;;;;;13.63;9.18;;;;;;;1.97;71.61;98733.06;5059190;27;105913;-71
2022/04/01 09:09:24;;;;;;;12.88;9.48;;;;;;;2.03;71.98;98737.69;5048483;27;106941;-71
2022/04/01 09:12:12;;;;;;;9.88;7.22;;;;;;;2.00;71.25;98730.13;5047046;27;105989;-71
2022/04/01 09:14:39;;;;;;;16.70;8.20;;;;;;;2.01;71.40;98728.34;5048213;27;106123;-72
2022/04/01 09:17:06;;;;;;;16.48;8.38;;;;;;;2.10;71.88;98732.66;5047517;27;106237;-71
2022/04/01 09:19:35;;;;;;;14.07;8.43;;;;;;;2.14;71.10;98727.94;5047008;27;105965;-70
2022/04/01 09:22:19;;;;;;;15.95;7.13;;;;;;;2.09;70.89;98735.44;5046034;27;106003;-71
2022/04/01 09:24:55;;;;;;;16.95;10.13;;;;;;;2.06;71.37;98741.81;5048091;27;106119;-71
2022/04/01 09:27:40;;;;;;;14.40;9.43;;;;;;;2.13;71.33;98742.06;5048082;27;105872;-71
2022/04/01 09:30:10;;;;;;;13.18;8.45;;;;;;;2.16;71.29;98747.84;5050374;27;105839;-71
2022/04/01 09:32:43;;;;;;;11.70;8.60;;;;;;;2.18;71.03;98745.06;5050274;27;105844;-71
2022/04/01 09:35:10;;;;;;;9.27;7.00;;;;;;;2.20;71.19;98748.34;5051402;27;105970;-71
2022/04/01 09:37:45;;;;;;;14.45;8.45;;;;;;;2.19;71.16;98738.84;5050506;27;106201;-70
2022/04/01 09:40:13;;;;;;;13.13;8.25;;;;;;;2.20;71.18;98743.09;5048796;27;106001;-71
2022/04/01 09:42:39;;;;;;;13.48;8.85;;;;;;;2.24;71.34;98739.19;5050019;27;106002;-71
2022/04/01 09:45:06;;;;;;;15.35;9.25;;;;;;;2.27;71.08;98743.31;5051116;27;106073;-71
2022/04/01 09:47:38;;;;;;;15.40;9.32;;;;;;;2.22;70.78;98743.78;5050560;27;106497;-71
2022/04/01 09:50:16;;;;;;;16.85;10.27;;;;;;;2.24;71.19;98752.31;5049115;27;106148;-70
2022/04/01 09:52:42;;;;;;;17.80;10.65;;;;;;;2.30;71.24;98746.47;5049934;27;106053;-71
2022/04/01 09:55:08;;;;;;;21.75;10.73;;;;;;;2.34;71.34;98747.81;5050856;27;106038;-71
2022/04/01 09:57:34;;;;;;;15.65;9.80;;;;;;;2.40;71.01;98745.56;5050486;27;106189;-71
2022/04/01 10:00:00;;;;;;;10.82;7.93;;;;;;;2.48;70.92;98742.97;5049729;27;106231;-71
2022/04/01 10:02:26;;;;;;;13.02;9.48;;;;;;;2.64;71.32;98743.09;5050062;27;105948;-71
2022/04/01 10:04:53;;;;;;;14.85;8.77;;;;;;;2.77;70.81;98744.47;5092165;27;106163;-71
2022/04/01 10:07:20;;;;;;;16.52;9.60;;;;;;;2.74;70.50;98745.59;5091661;27;106345;-72
2022/04/01 10:09:48;;;;;;;10.52;7.47;;;;;;;2.71;70.00;98746.75;5091729;27;106060;-71
2022/04/01 10:12:15;;;;;;;9.43;6.72;;;;;;;2.63;69.33;98751.94;5090940;27;105947;-70
2022/04/01 10:14:42;;;;;;;9.40;5.15;;;;;;;2.57;69.41;98744.69;5092120;27;105913;-71
2022/04/01 10:17:09;;;;;;;11.43;6.70;;;;;;;2.48;69.41;98742.97;5091282;27;106901;-71
2022/04/01 10:19:38;;;;;;;12.38;5.72;;;;;;;2.42;69.42;98746.22;5091113;27;106091;-71
2022/04/01 10:22:05;;;;;;;8.32;6.32;;;;;;;2.38;70.01;98748.34;5090487;27;106041;-71
2022/04/01 10:24:30;;;;;;;11.40;7.15;;;;;;;2.35;70.10;98757.34;5091610;27;105887;-71
2022/04/01 10:27:14;;;;;;;7.75;4.65;;;;;;;2.27;69.17;98756.44;5090832;27;106211;-72
2022/04/01 10:29:40;;;;;;;13.20;6.60;;;;;;;2.18;69.20;98751.13;5090518;27;106158;-71
2022/04/01 10:32:28;;;;;;;17.52;6.32;;;;;;;2.16;69.52;98754.88;5090227;27;106117;-71
2022/04/01 10:34:58;;;;;;;11.80;6.03;;;;;;;2.14;69.93;98755.03;5091992;27;106210;-70
2022/04/01 10:37:25;;;;;;;8.60;5.63;;;;;;;2.18;69.91;98758.19;5091049;27;106103;-74
2022/04/01 10:39:57;;;;;;;10.43;5.20;;;;;;;2.19;69.86;98754.59;5090290;27;106290;-71
2022/04/01 10:42:30;;;;;;;13.65;6.00;;;;;;;2.22;69.59;98756.91;5089781;27;105906;-72
2022/04/01 10:45:00;;;;;;;17.77;7.88;;;;;;;2.21;69.78;98763.13;5091475;27;106272;-69
2022/04/01 10:53:35;;;;;;;10.83;6.03;;;;;;;2.27;69.47;98759.06;5091134;27;106160;-68
2022/04/01 10:56:22;;;;;;;13.75;5.22;;;;;;;2.23;69.69;98761.19;5090729;27;105930;-71
2022/04/01 10:59:01;;;;;;;16.45;8.20;;;;;;;2.28;70.22;98766.78;5090336;27;106465;-72
2022/04/01 11:01:26;;;;;;;16.10;8.73;;;;;;;2.36;70.17;98773.94;5090226;27;105991;-71
2022/04/01 11:03:52;;;;;;;14.35;6.70;;;;;;;2.43;70.02;98776.78;5090291;27;105967;-71
2022/04/01 11:06:25;;;;;;;12.85;6.75;;;;;;;2.44;69.50;98779.25;5090845;27;106124;-71
2022/04/01 11:08:55;;;;;;;11.50;5.85;;;;;;;2.50;70.04;98769.94;5090027;27;106244;-71
2022/04/01 11:11:21;;;;;;;14.48;6.65;;;;;;;2.47;69.07;98764.97;5089812;27;105923;-70
2022/04/01 11:14:06;;;;;;;21.77;8.35;;;;;;;2.45;68.94;98770.41;5090043;27;105821;-69
2022/04/01 11:16:50;;;;;;;13.63;6.57;;;;;;;2.42;69.01;98773.34;5090288;27;106020;-72
2022/04/01 11:19:27;;;;;;;14.60;7.22;;;;;;;2.44;69.40;98778.44;5089827;27;106155;-70
2022/04/01 11:21:53;;;;;;;15.88;6.53;;;;;;;2.52;69.48;98776.69;5089342;27;105982;-72
2022/04/01 11:24:36;;;;;;;10.57;5.20;;;;;;;2.61;69.02;98760.97;5089696;27;106527;-70
2022/04/01 11:27:22;;;;;;;10.35;5.95;;;;;;;2.67;69.16;98769.06;5090505;27;105970;-69
2022/04/01 11:30:09;;;;;;;9.68;5.60;;;;;;;2.74;69.24;98765.84;5089575;27;106940;-70
2022/04/01 11:32:37;;;;;;;9.40;5.90;;;;;;;2.74;68.99;98765.84;5089291;27;105997;-69
2022/04/01 11:35:05;;;;;;;13.45;6.60;;;;;;;2.69;68.52;98769.75;5089392;27;105982;-72
2022/04/01 11:37:35;;;;;;;11.65;6.28;;;;;;;2.68;68.53;98772.53;5090564;27;105867;-70
2022/04/01 11:40:19;;;;;;;12.48;6.65;;;;;;;2.68;68.69;98770.72;5089351;27;106073;-70
2022/04/01 11:43:02;;;;;;;11.23;6.03;;;;;;;2.68;68.73;98769.91;5089143;27;105922;-71
2022/04/01 11:45:29;;;;;;;10.02;5.88;;;;;;;2.62;68.14;98771.31;5089602;27;105874;-69
2022/04/01 11:47:54;;;;;;;7.85;5.53;;;;;;;2.59;68.72;98774.28;5089655;27;106290;-70
2022/04/01 11:50:22;;;;;;;8.07;4.75;;;;;;;2.60;68.14;98775.09;5088882;27;106049;-69
2022/04/01 11:52:53;;;;;;;10.05;6.10;;;;;;;2.57;68.23;98768.34;5089517;27;105967;-69
2022/04/01 11:55:23;;;;;;;9.52;5.75;;;;;;;2.60;68.33;98765.41;5089464;27;106296;-71
2022/04/01 11:57:49;;;;;;;15.77;5.05;;;;;;;2.71;68.87;98765.16;5090203;27;105861;-69
2022/04/01 12:00:19;;;;;;;10.52;5.65;;;;;;;2.75;68.42;98770.94;5089458;27;106169;-72
2022/04/01 12:02:48;;;;;;;11.23;5.93;;;;;;;2.75;68.43;98763.03;5089791;27;106278;-71
2022/04/01 12:05:14;;;;;;;10.52;6.57;;;;;;;2.79;68.39;98766.16;5089506;27;105832;-71
2022/04/01 12:10:26;;;;;;;14.75;5.88;;;;;;;2.86;68.45;98770.66;5089608;27;105828;-69
2022/04/01 12:12:59;;;;;;;12.60;6.63;;;;;;;2.87;68.45;98753.91;5088827;27;106738;-72
2022/04/01 12:15:35;;;;;;;11.13;7.47;;;;;;;2.94;68.52;98762.00;5088922;27;106365;-71
2022/04/01 12:18:04;;;;;;;13.30;6.78;;;;;;;3.05;68.34;98761.72;5089119;27;106774;-68
2022/04/01 12:20:31;;;;;;;13.27;5.63;;;;;;;3.14;68.46;98761.75;5088763;27;106242;-71
2022/04/01 12:22:59;;;;;;;7.53;4.85;;;;;;;3.15;67.83;98761.59;5088080;27;106510;-71
2022/04/01 12:25:24;;;;;;;12.00;6.15;;;;;;;3.15;68.19;98766.06;5087568;27;105950;-69
2022/04/01 12:27:58;;;;;;;9.85;6.18;;;;;;;3.16;67.77;98762.44;5089128;27;105967;-70
2022/04/01 12:30:50;;;;;;;16.02;5.93;;;;;;;3.18;67.91;98757.84;5088195;27;106472;-69
2022/04/01 12:33:18;;;;;;;15.20;6.45;;;;;;;3.17;68.21;98762.28;5083365;27;106578;-72
2022/04/01 12:36:04;;;;;;;14.75;5.22;;;;;;;3.16;68.10;98762.44;5088159;27;106137;-70
2022/04/01 12:38:33;;;;;;;11.90;5.63;;;;;;;3.16;68.01;98772.97;5089394;27;106342;-72
2022/04/01 12:41:01;;;;;;;12.73;5.80;;;;;;;3.19;68.25;98764.75;5088331;27;106249;-72
2022/04/01 12:43:26;;;;;;;11.02;5.90;;;;;;;3.18;67.98;98757.84;5086896;27;108482;-71
2022/04/01 12:46:13;;;;;;;10.18;5.95;;;;;;;3.16;67.55;98759.81;5088683;27;105905;-70
2022/04/01 12:48:42;;;;;;;14.10;6.13;;;;;;;3.14;68.22;98757.31;5089182;27;106338;-70
2022/04/01 12:51:08;;;;;;;14.90;5.88;;;;;;;3.20;68.00;98751.44;5088622;27;106103;-71
2022/04/01 12:53:36;;;;;;;9.93;4.93;;;;;;;3.21;67.36;98752.25;5088652;27;106592;-70
2022/04/01 12:56:17;;;;;;;12.63;5.88;;;;;;;3.24;68.10;98741.41;5088565;27;106172;-71
2022/04/01 12:58:51;;;;;;;10.38;6.00;;;;;;;3.23;67.53;98745.03;5089705;27;106117;-70
2022/04/01 13:01:22;;;;;;;10.32;5.30;;;;;;;3.17;67.42;98745.66;5088786;27;106287;-72
2022/04/01 13:03:48;;;;;;;14.18;6.43;;;;;;;3.14;67.81;98746.78;5091600;27;105820;-73
2022/04/01 13:06:15;;;;;;;12.02;5.97;;;;;;;3.14;67.52;98746.78;5091157;27;105820;-75
2022/04/01 13:08:40;;;;;;;8.68;6.07;;;;;;;3.16;67.82;98749.28;5092392;27;105895;-73
2022/04/01 13:11:13;;;;;;;11.02;6.32;;;;;;;3.20;68.15;98748.00;5091643;27;105784;-72
2022/04/01 13:13:39;;;;;;;11.25;6.00;;;;;;;3.24;68.15;98746.69;5090778;27;105970;-71
2022/04/01 13:16:04;;;;;;;9.88;5.45;;;;;;;3.27;67.39;98749.00;5091085;27;105709;-72
2022/04/01 13:18:32;;;;;;;10.38;5.63;;;;;;;3.30;67.62;98750.50;5092234;27;105965;-69
2022/04/01 13:20:58;;;;;;;9.25;5.63;;;;;;;3.32;67.59;98737.97;5091348;27;106167;-71
2022/04/01 13:23:25;;;;;;;11.35;6.00;;;;;;;3.41;67.89;98741.47;5091291;27;106616;-72
2022/04/01 13:25:50;;;;;;;13.98;6.40;;;;;;;3.50;67.78;98746.59;5091288;27;106010;-68
2022/04/01 13:28:15;;;;;;;14.43;6.07;;;;;;;3.49;67.17;98750.22;5092246;27;106092;-71
2022/04/01 13:30:41;;;;;;;9.65;5.97;;;;;;;3.49;67.05;98750.22;5091339;27;106547;-67
2022/04/01 13:33:07;;;;;;;85.15;48.60;;;;;;;3.51;67.10;98743.00;5079562;27;106374;-67
2022/04/01 13:35:33;;;;;;;27.45;15.85;;;;;;;3.57;67.33;98744.16;5049634;27;106015;-68
2022/04/01 13:37:58;;;;;;;14.88;8.00;;;;;;;3.62;67.63;98748.94;5050701;27;105905;-70
2022/04/01 13:40:25;;;;;;;15.63;6.63;;;;;;;3.66;67.35;98748.47;5049936;27;106222;-70
2022/04/01 13:42:52;;;;;;;13.48;7.88;;;;;;;3.74;67.45;98750.28;5050025;27;105824;-72
2022/04/01 13:45:18;;;;;;;12.23;6.78;;;;;;;3.78;67.62;98748.16;5049988;27;106011;-72
2022/04/01 13:47:43;;;;;;;8.52;5.07;;;;;;;3.82;67.16;98755.56;5050848;27;106380;-71
2022/04/01 13:50:09;;;;;;;16.15;6.28;;;;;;;3.84;66.79;98758.03;5050240;27;106209;-69
2022/04/01 13:52:35;;;;;;;21.95;6.30;;;;;;;3.84;66.83;98760.66;5049947;27;105990;-67
2022/04/01 13:55:00;;;;;;;12.65;5.88;;;;;;;3.84;66.96;98753.59;5050328;27;106071;-69
2022/04/01 13:57:26;;;;;;;11.10;5.85;;;;;;;3.87;66.64;98753.28;5057160;27;106013;-72
